Time;durP1;ratioP1;P1;durP2;ratioP2;P2;SDS_P1;SDS_P2;PMS_P1;PMS_P2;Temp;Humidity;BMP_temperature;BMP_pressure;BME280_temperature;BME280_humidity;BME280_pressure;Samples;Min_cycle;Max_cycle;Signal;HPM_P1;HPM_P2
2023/12/31 00:05:01;;;;;;;69.05;58.33;;;9.20;86.90;;;;;;12659410;28;20037;-72
2023/12/31 00:11:03;;;;;;;60.30;53.70;;;9.30;86.90;;;;;;12659299;28;20020;-72
2023/12/31 00:17:05;;;;;;;59.00;51.15;;;9.30;86.80;;;;;;12658906;28;20032;-72
2023/12/31 00:23:06;;;;;;;70.72;60.15;;;9.20;87.00;;;;;;12658092;28;20036;-72
2023/12/31 00:29:08;;;;;;;66.45;50.60;;;9.30;87.10;;;;;;12640298;28;20035;-72
2023/12/31 00:35:10;;;;;;;71.10;59.88;;;9.30;86.90;;;;;;12623406;28;20032;-72
2023/12/31 00:41:11;;;;;;;100.40;91.88;;;9.30;87.10;;;;;;12657713;28;20028;-72
2023/12/31 00:47:13;;;;;;;73.28;60.38;;;9.30;87.20;;;;;;12622778;28;20024;-72
2023/12/31 00:53:14;;;;;;;87.20;70.00;;;9.30;87.20;;;;;;12639069;28;20039;-72
2023/12/31 00:59:16;;;;;;;87.93;65.53;;;9.20;86.90;;;;;;12638867;28;20062;-72
2023/12/31 01:06:11;;;;;;;67.28;57.35;;;9.10;87.20;;;;;;12621874;28;20032;-72
2023/12/31 01:12:13;;;;;;;56.85;50.33;;;9.00;87.10;;;;;;12638204;28;20020;-72
2023/12/31 01:18:14;;;;;;;51.10;43.22;;;8.80;87.10;;;;;;12637929;28;20349;-72
2023/12/31 01:24:16;;;;;;;58.95;47.65;;;8.80;87.10;;;;;;12637630;28;20368;-75
2023/12/31 01:30:18;;;;;;;57.28;48.20;;;8.70;87.20;;;;;;12655613;28;20380;-75
2023/12/31 01:36:24;;;;;;;70.30;55.55;;;8.60;87.10;;;;;;12654378;28;20066;-75
2023/12/31 01:42:25;;;;;;;57.00;49.17;;;8.70;87.20;;;;;;12653784;28;20039;-75
2023/12/31 01:48:27;;;;;;;61.72;48.65;;;8.70;87.30;;;;;;12654769;28;20031;-75
2023/12/31 01:54:29;;;;;;;58.08;51.97;;;8.80;87.20;;;;;;12636669;28;20043;-75
2023/12/31 02:00:31;;;;;;;60.72;51.38;;;8.70;87.10;;;;;;12636811;28;20043;-75
2023/12/31 02:06:32;;;;;;;64.18;57.30;;;8.80;87.20;;;;;;12654022;28;20043;-75
2023/12/31 02:12:34;;;;;;;55.28;42.88;;;8.80;87.00;;;;;;12636483;28;20070;-73
2023/12/31 02:18:36;;;;;;;47.05;41.28;;;8.90;87.00;;;;;;12619784;28;20355;-72
2023/12/31 02:24:47;;;;;;;60.92;54.85;;;8.80;87.00;;;;;;12635573;28;20031;-72
2023/12/31 02:30:49;;;;;;;48.85;43.72;;;8.90;87.10;;;;;;12635560;28;20024;-72
2023/12/31 02:36:51;;;;;;;46.53;41.22;;;8.90;87.10;;;;;;12635412;28;20032;-72
2023/12/31 02:42:52;;;;;;;47.58;42.90;;;8.90;87.10;;;;;;12635218;28;20027;-72
2023/12/31 02:48:54;;;;;;;46.67;42.30;;;8.80;87.00;;;;;;12611958;28;20357;-72
2023/12/31 02:54:55;;;;;;;40.17;33.20;;;8.80;87.10;;;;;;12644779;28;20039;-72
2023/12/31 03:01:00;;;;;;;38.08;34.17;;;8.70;87.10;;;;;;12662440;28;20040;-73
2023/12/31 03:07:02;;;;;;;37.33;32.88;;;8.70;87.10;;;;;;12627609;28;20475;-72
2023/12/31 03:13:04;;;;;;;41.13;33.03;;;8.70;87.20;;;;;;12643944;28;20042;-71
2023/12/31 03:19:05;;;;;;;42.53;34.50;;;8.70;87.30;;;;;;12661788;28;20024;-72
2023/12/31 03:25:07;;;;;;;65.20;58.97;;;8.70;87.10;;;;;;12643366;28;20036;-72
2023/12/31 03:31:09;;;;;;;48.33;43.92;;;8.80;87.20;;;;;;12661175;28;20039;-72
2023/12/31 03:37:11;;;;;;;37.53;31.50;;;8.80;87.10;;;;;;12661549;28;20047;-72
2023/12/31 03:43:13;;;;;;;50.38;45.38;;;8.80;87.00;;;;;;12642596;28;20039;-72
2023/12/31 03:49:15;;;;;;;38.30;34.30;;;8.70;87.00;;;;;;12625771;28;20032;-72
2023/12/31 03:55:16;;;;;;;47.95;43.45;;;8.80;87.10;;;;;;12624666;28;20042;-71
2023/12/31 04:01:18;;;;;;;45.33;40.80;;;8.80;87.00;;;;;;12642337;28;20039;-71
2023/12/31 04:07:20;;;;;;;36.53;30.98;;;8.90;87.00;;;;;;12641441;28;20047;-71
2023/12/31 04:13:23;;;;;;;41.40;31.00;;;8.80;86.90;;;;;;12641718;28;20040;-72
2023/12/31 04:19:25;;;;;;;35.33;28.38;;;8.70;86.90;;;;;;12640976;28;20463;-71
2023/12/31 04:25:26;;;;;;;33.70;30.15;;;8.60;87.00;;;;;;12657255;28;20086;-71
2023/12/31 04:31:28;;;;;;;50.17;45.08;;;8.70;87.20;;;;;;12640078;28;20047;-71
2023/12/31 04:37:30;;;;;;;42.42;38.47;;;8.70;87.20;;;;;;12640375;28;20048;-71
2023/12/31 04:43:33;;;;;;;34.03;29.65;;;8.80;87.10;;;;;;12639546;28;20043;-71
2023/12/31 04:49:35;;;;;;;45.60;41.00;;;8.80;87.00;;;;;;12639403;28;20043;-71
2023/12/31 04:55:36;;;;;;;39.78;36.05;;;8.80;87.20;;;;;;12638936;28;20024;-71
2023/12/31 05:01:38;;;;;;;37.55;34.15;;;8.80;87.20;;;;;;12605683;28;20047;-71
2023/12/31 05:07:40;;;;;;;41.92;34.35;;;8.80;87.30;;;;;;12638324;28;20035;-71
2023/12/31 05:13:43;;;;;;;28.00;24.98;;;8.80;87.20;;;;;;12656317;28;20039;-74
2023/12/31 05:19:45;;;;;;;39.75;36.20;;;8.80;87.10;;;;;;12655952;28;20055;-74
2023/12/31 05:25:47;;;;;;;41.75;37.42;;;8.70;87.10;;;;;;12655611;28;20059;-74
2023/12/31 05:31:48;;;;;;;37.10;33.30;;;8.70;87.20;;;;;;12655425;28;20024;-74
2023/12/31 05:37:50;;;;;;;31.88;25.80;;;8.70;87.20;;;;;;12655881;28;20432;-74
2023/12/31 05:43:52;;;;;;;40.55;37.00;;;8.60;87.20;;;;;;12636537;28;20445;-75
2023/12/31 05:49:53;;;;;;;29.27;26.35;;;8.50;87.30;;;;;;12636710;28;20028;-74
2023/12/31 05:55:56;;;;;;;33.42;29.83;;;8.60;87.30;;;;;;12654442;28;20028;-74
2023/12/31 06:01:58;;;;;;;28.13;24.38;;;8.60;87.30;;;;;;12654286;28;20035;-74
2023/12/31 06:07:59;;;;;;;27.02;24.10;;;8.60;87.30;;;;;;12654022;28;20036;-75
2023/12/31 06:14:02;;;;;;;28.88;25.70;;;8.60;87.30;;;;;;12653935;28;20346;-74
2023/12/31 06:20:06;;;;;;;28.70;25.73;;;8.70;87.20;;;;;;12642771;28;20044;-70
2023/12/31 06:26:07;;;;;;;26.00;23.30;;;8.70;87.20;;;;;;12670275;28;20028;-70
2023/12/31 06:32:09;;;;;;;29.90;26.63;;;8.60;87.20;;;;;;12670293;28;20039;-70
2023/12/31 06:38:10;;;;;;;40.83;37.20;;;8.50;87.20;;;;;;12670853;28;20024;-71
2023/12/31 06:44:12;;;;;;;39.28;35.88;;;8.50;87.30;;;;;;12651977;28;20036;-74
2023/12/31 06:50:15;;;;;;;37.00;33.88;;;8.50;87.30;;;;;;12670669;28;20452;-74
2023/12/31 06:56:17;;;;;;;32.80;29.45;;;8.50;87.20;;;;;;12675873;22;20051;-75
2023/12/31 07:02:20;;;;;;;30.85;27.52;;;8.50;87.20;;;;;;12669705;28;20440;-75
2023/12/31 07:08:21;;;;;;;31.27;28.13;;;8.40;87.30;;;;;;12670228;28;20032;-75
2023/12/31 07:14:24;;;;;;;30.90;27.73;;;8.50;87.30;;;;;;12669426;28;20024;-74
2023/12/31 07:20:28;;;;;;;35.17;31.52;;;8.50;87.20;;;;;;12670593;28;20056;-75
2023/12/31 07:26:30;;;;;;;32.10;27.63;;;8.60;87.20;;;;;;12669008;28;20043;-75
2023/12/31 07:32:32;;;;;;;45.95;42.10;;;8.60;87.30;;;;;;12645167;28;20028;-75
2023/12/31 07:38:34;;;;;;;37.03;33.42;;;8.70;87.40;;;;;;12660773;28;20028;-75
2023/12/31 07:44:35;;;;;;;27.15;24.40;;;8.70;87.40;;;;;;12659254;28;20035;-74
2023/12/31 07:50:37;;;;;;;30.35;25.80;;;8.70;87.40;;;;;;12660305;28;20035;-75
2023/12/31 07:56:41;;;;;;;39.33;36.05;;;8.80;87.30;;;;;;12658721;28;20344;-74
2023/12/31 08:02:43;;;;;;;32.25;29.38;;;8.80;87.50;;;;;;12658540;28;20437;-74
2023/12/31 08:08:49;;;;;;;32.33;29.02;;;8.90;87.40;;;;;;12641517;28;20349;-74
2023/12/31 08:14:53;;;;;;;32.92;29.98;;;8.90;87.40;;;;;;12659111;28;20032;-74
2023/12/31 08:20:54;;;;;;;37.47;34.13;;;8.90;87.40;;;;;;12640956;28;20051;-75
2023/12/31 08:26:56;;;;;;;28.27;25.58;;;9.00;87.50;;;;;;12658403;28;20457;-74
2023/12/31 08:32:59;;;;;;;26.92;24.25;;;9.10;87.50;;;;;;12658236;28;20028;-74
2023/12/31 08:39:02;;;;;;;30.00;27.25;;;9.20;87.60;;;;;;12657933;28;20437;-74
2023/12/31 08:45:06;;;;;;;38.67;35.78;;;9.20;87.60;;;;;;12657264;28;20036;-75
2023/12/31 08:51:08;;;;;;;33.15;30.35;;;9.20;87.60;;;;;;12656244;28;20036;-72
2023/12/31 08:57:10;;;;;;;48.50;44.83;;;9.30;87.50;;;;;;12657019;28;20365;-71
2023/12/31 09:03:11;;;;;;;41.95;38.67;;;9.40;87.60;;;;;;12656833;28;20039;-72
2023/12/31 09:09:14;;;;;;;44.15;40.45;;;9.40;87.60;;;;;;12655162;28;20032;-72
2023/12/31 09:15:23;;;;;;;39.03;36.17;;;9.40;87.70;;;;;;12655066;28;20032;-72
2023/12/31 09:21:27;;;;;;;36.55;33.83;;;9.50;87.60;;;;;;12655892;28;20031;-74
2023/12/31 09:27:30;;;;;;;40.63;37.35;;;9.50;87.60;;;;;;12654744;28;20047;-75
2023/12/31 09:33:34;;;;;;;66.20;61.15;;;9.50;87.60;;;;;;12655446;28;20028;-75
2023/12/31 09:39:38;;;;;;;69.80;65.57;;;9.60;87.60;;;;;;12653996;28;20035;-75
2023/12/31 09:45:41;;;;;;;59.88;55.70;;;9.50;87.70;;;;;;12653800;28;20058;-75
2023/12/31 09:51:44;;;;;;;66.32;61.88;;;9.50;87.80;;;;;;12654670;28;20118;-74
2023/12/31 09:57:53;;;;;;;55.65;51.67;;;9.50;87.90;;;;;;12652727;28;20044;-75
2023/12/31 10:03:56;;;;;;;77.15;72.18;;;9.60;87.90;;;;;;12652964;28;20036;-75
2023/12/31 10:09:59;;;;;;;73.88;69.40;;;9.60;87.70;;;;;;12654119;28;20452;-73
2023/12/31 10:16:12;;;;;;;78.82;73.85;;;9.60;87.80;;;;;;12653880;28;20032;-72
2023/12/31 10:22:24;;;;;;;83.25;77.97;;;9.70;87.70;;;;;;12653830;28;20456;-72
2023/12/31 10:28:29;;;;;;;94.13;88.05;;;9.70;87.60;;;;;;12652344;28;20043;-73
2023/12/31 10:34:35;;;;;;;76.82;71.57;;;9.70;87.60;;;;;;12619011;28;20040;-73
2023/12/31 10:40:40;;;;;;;93.25;87.95;;;9.70;87.50;;;;;;12635722;28;20044;-72
2023/12/31 10:46:48;;;;;;;72.63;67.53;;;9.70;87.60;;;;;;12652191;28;20036;-73
2023/12/31 10:52:53;;;;;;;66.38;61.97;;;9.80;87.60;;;;;;12651756;28;20036;-73
2023/12/31 10:58:55;;;;;;;75.65;70.10;;;9.80;87.50;;;;;;12652990;28;20039;-73
2023/12/31 11:04:58;;;;;;;80.57;75.88;;;9.90;87.50;;;;;;12654251;28;20035;-73
2023/12/31 11:11:05;;;;;;;86.13;81.00;;;9.90;87.40;;;;;;12662307;28;20064;-73
2023/12/31 11:17:48;;;;;;;77.10;72.50;;;10.00;87.50;;;;;;12662751;28;20032;-73
2023/12/31 11:23:57;;;;;;;102.15;96.45;;;10.00;87.20;;;;;;12607660;28;20044;-73
2023/12/31 11:29:58;;;;;;;128.50;121.83;;;9.90;87.30;;;;;;12587498;28;20063;-73
2023/12/31 11:36:14;;;;;;;83.25;78.40;;;9.90;87.30;;;;;;12604936;28;20368;-73
2023/12/31 11:42:18;;;;;;;110.35;103.57;;;9.90;87.40;;;;;;12603925;28;20353;-73
2023/12/31 11:48:20;;;;;;;107.95;101.20;;;10.00;87.30;;;;;;12604633;28;20041;-73
2023/12/31 11:54:23;;;;;;;117.07;109.78;;;10.00;87.30;;;;;;12604664;28;20025;-73
2023/12/31 12:00:55;;;;;;;109.22;102.25;;;10.10;87.20;;;;;;12603624;28;20047;-73
2023/12/31 12:06:57;;;;;;;89.32;83.22;;;10.10;87.10;;;;;;12619474;28;20044;-73
2023/12/31 12:13:01;;;;;;;100.18;93.82;;;10.10;87.10;;;;;;12585947;28;20354;-73
2023/12/31 12:19:05;;;;;;;91.13;85.05;;;10.10;87.20;;;;;;12601456;28;20036;-73
2023/12/31 12:25:07;;;;;;;80.32;74.47;;;10.10;87.20;;;;;;12602634;28;20036;-73
2023/12/31 12:31:09;;;;;;;87.68;82.00;;;10.20;87.10;;;;;;12602382;28;20055;-73
2023/12/31 12:37:11;;;;;;;118.72;112.32;;;10.10;87.10;;;;;;12601099;28;20037;-73
2023/12/31 12:43:13;;;;;;;104.03;97.78;;;10.10;87.20;;;;;;12600439;28;20031;-73
2023/12/31 12:49:15;;;;;;;97.22;91.00;;;10.10;87.30;;;;;;12651169;28;20048;-73
2023/12/31 12:55:20;;;;;;;51.47;47.22;;;10.10;87.10;;;;;;12657958;28;20039;-73
2023/12/31 13:01:47;;;;;;;66.45;61.35;;;10.10;87.20;;;;;;12657542;28;20051;-73
2023/12/31 13:07:49;;;;;;;87.88;82.13;;;10.20;87.30;;;;;;12656050;28;20028;-73
2023/12/31 13:13:51;;;;;;;136.90;129.85;;;10.20;87.30;;;;;;12656933;28;20051;-76
2023/12/31 13:19:54;;;;;;;106.10;99.47;;;10.20;87.20;;;;;;12654829;28;20052;-75
2023/12/31 13:26:09;;;;;;;122.10;115.57;;;10.20;87.10;;;;;;12655141;28;20032;-76
2023/12/31 13:32:11;;;;;;;125.13;118.57;;;10.20;87.00;;;;;;12655211;28;20024;-76
2023/12/31 13:38:23;;;;;;;147.90;140.77;;;10.20;87.00;;;;;;12637896;28;20051;-76
2023/12/31 13:44:24;;;;;;;130.30;123.07;;;10.20;87.00;;;;;;12638882;28;20474;-76
2023/12/31 13:50:41;;;;;;;73.88;69.28;;;10.20;87.00;;;;;;12654054;28;20457;-75
2023/12/31 13:56:43;;;;;;;29.13;24.90;;;10.20;87.10;;;;;;12655133;28;20463;-75
2023/12/31 14:02:47;;;;;;;109.38;103.53;;;10.20;87.00;;;;;;12654881;28;20325;-75
2023/12/31 14:08:49;;;;;;;135.60;128.85;;;10.20;87.00;;;;;;12654611;28;20039;-75
2023/12/31 14:14:51;;;;;;;158.38;151.05;;;10.20;87.00;;;;;;12653263;28;20036;-72
2023/12/31 14:20:54;;;;;;;151.52;144.43;;;10.20;87.00;;;;;;12654334;28;20028;-73
2023/12/31 14:26:56;;;;;;;96.47;91.22;;;10.20;87.10;;;;;;12653005;28;20043;-73
2023/12/31 14:32:57;;;;;;;96.20;90.63;;;10.20;87.20;;;;;;12653052;28;20024;-76
2023/12/31 14:39:15;;;;;;;93.10;87.90;;;10.20;87.10;;;;;;12654057;28;20036;-76
2023/12/31 14:45:17;;;;;;;80.82;75.97;;;10.10;87.10;;;;;;12662821;28;20036;-76
2023/12/31 14:51:19;;;;;;;106.53;100.45;;;10.10;87.10;;;;;;12627640;28;20449;-73
2023/12/31 14:57:21;;;;;;;103.40;97.50;;;10.00;87.10;;;;;;12630364;22;20055;-76
2023/12/31 15:03:23;;;;;;;109.97;104.18;;;10.00;87.10;;;;;;12656579;28;20032;-76
2023/12/31 15:09:24;;;;;;;63.58;59.15;;;10.00;87.10;;;;;;12656445;28;20035;-76
2023/12/31 15:15:26;;;;;;;65.13;60.88;;;10.00;87.10;;;;;;12656937;28;20408;-76
2023/12/31 15:21:28;;;;;;;78.68;73.13;;;10.00;87.10;;;;;;12656046;28;20036;-76
2023/12/31 15:27:31;;;;;;;49.45;45.50;;;10.00;87.10;;;;;;12605426;28;20350;-76
2023/12/31 15:33:33;;;;;;;65.38;61.13;;;10.00;87.10;;;;;;12637348;28;20035;-76
2023/12/31 15:39:35;;;;;;;62.97;58.85;;;10.00;87.10;;;;;;12636967;28;20043;-76
2023/12/31 15:45:37;;;;;;;70.18;65.55;;;9.90;87.20;;;;;;12637073;28;20028;-76
2023/12/31 15:51:39;;;;;;;87.63;82.38;;;10.00;87.20;;;;;;12635485;28;20035;-76
2023/12/31 15:57:41;;;;;;;60.42;55.80;;;10.00;87.20;;;;;;12654818;28;20036;-76
2023/12/31 16:03:42;;;;;;;65.97;61.03;;;10.00;87.20;;;;;;12654012;28;20044;-76
2023/12/31 16:09:44;;;;;;;59.13;54.28;;;9.90;87.30;;;;;;12636418;28;20043;-76
2023/12/31 16:15:46;;;;;;;70.43;65.60;;;9.90;87.30;;;;;;12653491;28;20043;-76
2023/12/31 16:21:48;;;;;;;67.05;62.33;;;9.90;87.30;;;;;;12653770;28;20037;-76
2023/12/31 16:27:51;;;;;;;50.78;46.65;;;10.00;87.30;;;;;;12634662;28;20040;-76
2023/12/31 16:33:57;;;;;;;65.18;60.22;;;9.90;87.40;;;;;;12634357;28;20024;-75
2023/12/31 16:39:59;;;;;;;54.83;50.35;;;9.90;87.40;;;;;;12617773;28;20044;-76
2023/12/31 16:46:08;;;;;;;82.82;76.55;;;9.90;87.50;;;;;;12603186;28;20369;-76
2023/12/31 16:52:09;;;;;;;80.80;75.53;;;9.90;87.50;;;;;;12601039;28;20032;-76
2023/12/31 16:58:18;;;;;;;56.92;52.60;;;9.80;87.70;;;;;;12582964;28;20055;-76
2023/12/31 17:04:20;;;;;;;95.43;89.20;;;9.80;87.70;;;;;;12583137;28;20419;-76
2023/12/31 17:10:22;;;;;;;58.35;53.45;;;9.80;87.70;;;;;;12566358;28;20040;-76
2023/12/31 17:16:24;;;;;;;67.80;62.15;;;9.80;87.80;;;;;;12582615;28;20123;-76
2023/12/31 17:22:25;;;;;;;52.80;48.25;;;9.80;87.90;;;;;;12599798;28;20043;-75
2023/12/31 17:28:27;;;;;;;58.83;53.97;;;9.80;88.00;;;;;;12568684;28;20350;-75
2023/12/31 17:34:29;;;;;;;77.65;72.05;;;9.80;88.00;;;;;;12635810;28;20039;-73
2023/12/31 17:40:30;;;;;;;91.07;85.22;;;9.80;88.00;;;;;;12655707;28;20027;-73
2023/12/31 17:46:32;;;;;;;82.05;76.78;;;9.80;88.00;;;;;;12656117;28;20036;-72
2023/12/31 17:52:36;;;;;;;62.53;57.25;;;9.70;88.10;;;;;;12655288;28;20035;-73
2023/12/31 17:58:38;;;;;;;59.05;54.20;;;9.70;88.10;;;;;;12655045;28;20483;-73
2023/12/31 18:04:39;;;;;;;69.38;64.28;;;9.70;88.20;;;;;;12635803;28;20044;-73
2023/12/31 18:10:41;;;;;;;78.63;72.57;;;9.70;88.10;;;;;;12654694;28;20036;-76
2023/12/31 18:16:46;;;;;;;71.57;65.80;;;9.70;88.20;;;;;;12654034;28;20326;-76
2023/12/31 18:22:47;;;;;;;60.78;55.60;;;9.70;88.20;;;;;;12619664;28;20044;-75
2023/12/31 18:28:49;;;;;;;61.22;56.10;;;9.70;88.40;;;;;;12654306;28;20032;-75
2023/12/31 18:35:26;;;;;;;44.95;40.47;;;9.70;88.40;;;;;;12653435;28;20031;-75
2023/12/31 18:41:28;;;;;;;77.82;71.20;;;9.70;88.40;;;;;;12385632;28;20042;-75
2023/12/31 18:47:30;;;;;;;72.78;66.00;;;9.70;88.40;;;;;;12385058;28;20034;-75
2023/12/31 18:53:31;;;;;;;73.90;68.20;;;9.70;88.50;;;;;;12449778;28;20458;-75
2023/12/31 18:59:34;;;;;;;58.53;52.53;;;9.60;88.60;;;;;;12449371;28;20057;-75
2023/12/31 19:05:35;;;;;;;65.60;60.70;;;9.70;88.50;;;;;;12448613;28;20517;-76
2023/12/31 19:11:37;;;;;;;61.15;55.88;;;9.60;88.60;;;;;;12432326;28;20422;-76
2023/12/31 19:17:41;;;;;;;64.18;58.35;;;9.60;88.60;;;;;;12590945;28;20043;-76
2023/12/31 19:23:43;;;;;;;69.00;62.95;;;9.60;88.50;;;;;;12653128;28;20039;-76
2023/12/31 19:29:44;;;;;;;58.17;53.03;;;9.60;88.60;;;;;;12660111;28;20347;-76
2023/12/31 19:35:45;;;;;;;51.88;47.90;;;9.50;88.80;;;;;;12643816;28;20357;-76
2023/12/31 19:41:47;;;;;;;52.15;47.72;;;9.60;88.90;;;;;;12661474;28;20059;-76
2023/12/31 19:47:50;;;;;;;61.00;56.63;;;9.60;88.80;;;;;;12660491;28;20035;-76
2023/12/31 19:53:51;;;;;;;65.18;58.28;;;9.60;88.70;;;;;;12642186;28;20024;-76
2023/12/31 19:59:55;;;;;;;46.38;42.70;;;9.70;88.70;;;;;;12642089;28;20040;-76
2023/12/31 20:05:58;;;;;;;59.47;55.50;;;9.70;88.60;;;;;;12641996;28;20047;-76
2023/12/31 20:12:00;;;;;;;41.75;38.00;;;9.70;88.50;;;;;;12608931;28;20356;-76
2023/12/31 20:18:02;;;;;;;52.30;47.72;;;9.70;88.50;;;;;;12659288;28;20036;-76
2023/12/31 20:24:03;;;;;;;58.15;53.70;;;9.70;88.50;;;;;;12659004;28;20047;-76
2023/12/31 20:30:06;;;;;;;59.10;55.00;;;9.70;88.40;;;;;;12658645;28;20040;-76
2023/12/31 20:36:08;;;;;;;27.30;22.42;;;9.70;88.50;;;;;;12658402;28;20036;-76
2023/12/31 20:42:09;;;;;;;63.15;59.17;;;9.60;88.30;;;;;;12657529;28;20028;-76
2023/12/31 20:48:11;;;;;;;54.03;50.08;;;9.50;88.50;;;;;;12657804;28;20360;-76
2023/12/31 20:54:42;;;;;;;46.17;42.53;;;9.50;88.60;;;;;;12657475;28;20032;-76
2023/12/31 21:00:44;;;;;;;45.40;41.97;;;9.50;88.40;;;;;;12657038;28;20063;-73
2023/12/31 21:06:48;;;;;;;53.65;49.97;;;9.50;88.50;;;;;;12656867;28;20028;-76
2023/12/31 21:12:58;;;;;;;52.70;49.65;;;9.60;88.50;;;;;;12638455;28;20028;-73
2023/12/31 21:19:00;;;;;;;41.78;38.83;;;9.60;88.40;;;;;;12638072;28;20580;-76
2023/12/31 21:25:03;;;;;;;41.90;39.17;;;9.60;88.40;;;;;;12637904;28;20039;-76
2023/12/31 21:31:04;;;;;;;56.00;52.08;;;9.60;88.40;;;;;;12621614;28;20346;-75
2023/12/31 21:37:06;;;;;;;51.03;47.10;;;9.60;88.30;;;;;;12604788;28;20043;-73
2023/12/31 21:43:11;;;;;;;39.28;35.90;;;9.50;88.20;;;;;;12655337;28;20028;-75
2023/12/31 21:49:12;;;;;;;56.83;52.55;;;9.40;88.40;;;;;;12619371;28;20044;-75
2023/12/31 21:55:14;;;;;;;44.92;41.60;;;9.40;88.50;;;;;;12654872;28;20035;-75
2023/12/31 22:01:15;;;;;;;33.03;30.00;;;9.40;88.60;;;;;;12654604;28;20040;-73
2023/12/31 22:07:17;;;;;;;39.92;36.83;;;9.50;88.60;;;;;;12636468;28;20348;-76
2023/12/31 22:13:18;;;;;;;38.20;35.38;;;9.50;88.50;;;;;;12636354;28;20047;-74
2023/12/31 22:19:20;;;;;;;22.77;18.15;;;9.50;88.50;;;;;;12603213;28;20051;-74
2023/12/31 22:25:22;;;;;;;35.53;32.55;;;9.50;88.40;;;;;;12636061;28;20051;-74
2023/12/31 22:31:29;;;;;;;68.63;64.65;;;9.50;88.50;;;;;;12653426;28;20337;-74
2023/12/31 22:37:31;;;;;;;35.38;32.78;;;9.50;88.40;;;;;;12636082;28;20035;-74
2023/12/31 22:43:36;;;;;;;39.42;35.92;;;9.50;88.50;;;;;;12654195;28;20032;-74
2023/12/31 22:49:39;;;;;;;37.63;34.40;;;9.50;88.30;;;;;;12653989;28;20035;-74
2023/12/31 22:55:41;;;;;;;33.90;30.67;;;9.30;88.30;;;;;;12622681;22;20027;-75
2023/12/31 23:01:42;;;;;;;36.85;34.08;;;9.30;88.50;;;;;;12605707;28;20041;-75
2023/12/31 23:07:44;;;;;;;29.73;27.00;;;9.30;88.40;;;;;;12611720;28;20037;-75
2023/12/31 23:13:46;;;;;;;46.13;42.95;;;9.30;88.40;;;;;;12612514;28;20064;-75
2023/12/31 23:19:48;;;;;;;41.10;38.03;;;9.40;88.50;;;;;;12602981;28;20055;-75
2023/12/31 23:25:50;;;;;;;41.85;38.88;;;9.40;88.40;;;;;;12595477;28;20120;-75
2023/12/31 23:31:52;;;;;;;46.15;42.63;;;9.40;88.40;;;;;;12561912;28;20037;-75
2023/12/31 23:37:53;;;;;;;37.75;34.08;;;9.50;88.40;;;;;;12561890;28;20075;-75
2023/12/31 23:43:55;;;;;;;42.72;37.33;;;9.50;88.30;;;;;;12544393;28;20362;-75
2023/12/31 23:49:57;;;;;;;63.70;57.20;;;9.40;88.30;;;;;;12560244;28;20453;-75
2023/12/31 23:55:58;;;;;;;50.20;43.42;;;9.30;88.20;;;;;;12561208;28;20330;-76
